createdAt,value
2023-10-23T00:00:37.440Z,9.77
2023-10-23T00:03:06.353Z,9.82
2023-10-23T00:05:35.130Z,9.84
2023-10-23T00:08:03.750Z,9.90
2023-10-23T00:10:32.257Z,9.90
2023-10-23T00:13:00.805Z,9.87
2023-10-23T00:15:29.491Z,9.87
2023-10-23T00:17:58.091Z,9.84
2023-10-23T00:20:26.600Z,9.83
2023-10-23T00:22:55.245Z,9.73
2023-10-23T00:25:23.755Z,9.69
2023-10-23T00:27:52.377Z,9.63
2023-10-23T00:30:20.944Z,9.76
2023-10-23T00:32:49.737Z,9.79
2023-10-23T00:35:18.726Z,9.77
2023-10-23T00:37:47.248Z,9.72
2023-10-23T00:40:15.882Z,9.62
2023-10-23T00:42:45.044Z,9.50
2023-10-23T00:45:13.630Z,9.40
2023-10-23T00:47:42.866Z,9.35
2023-10-23T00:50:12.217Z,9.38
2023-10-23T00:52:40.946Z,9.29
2023-10-23T00:55:10.873Z,9.25
2023-10-23T00:57:40.431Z,9.21
2023-10-23T01:00:11.234Z,9.25
2023-10-23T01:02:40.946Z,9.35
2023-10-23T01:05:09.803Z,9.29
2023-10-23T01:07:38.378Z,9.24
2023-10-23T01:10:08.021Z,9.17
2023-10-23T01:12:36.564Z,9.10
2023-10-23T01:15:06.117Z,9.05
2023-10-23T01:17:34.664Z,9.00
2023-10-23T01:20:03.193Z,8.97
2023-10-23T01:22:31.815Z,9.00
2023-10-23T01:25:03.003Z,9.03
2023-10-23T01:27:31.648Z,9.11
2023-10-23T01:30:00.311Z,9.04
2023-10-23T01:32:28.783Z,9.11
2023-10-23T01:34:58.006Z,9.04
2023-10-23T01:37:26.488Z,9.01
2023-10-23T01:39:56.606Z,8.94
2023-10-23T01:42:30.279Z,8.85
2023-10-23T01:45:00.638Z,8.79
2023-10-23T01:47:29.863Z,8.69
2023-10-23T01:49:58.452Z,8.60
2023-10-23T01:52:27.158Z,8.63
2023-10-23T01:54:56.079Z,8.53
2023-10-23T01:57:25.195Z,8.42
2023-10-23T01:59:55.169Z,8.39
2023-10-23T02:02:24.101Z,8.38
2023-10-23T02:04:52.693Z,8.45
2023-10-23T02:07:21.684Z,8.41
2023-10-23T02:09:50.385Z,8.32
2023-10-23T02:12:19.037Z,8.29
2023-10-23T02:14:47.555Z,8.24
2023-10-23T02:17:17.980Z,8.26
2023-10-23T02:19:47.686Z,8.24
2023-10-23T02:22:17.228Z,8.20
2023-10-23T02:24:46.127Z,8.21
2023-10-23T02:27:14.865Z,8.12
2023-10-23T02:29:43.515Z,8.11
2023-10-23T02:32:14.076Z,8.11
2023-10-23T02:34:44.853Z,8.12
2023-10-23T02:37:14.122Z,8.06
2023-10-23T02:39:42.676Z,7.99
2023-10-23T02:42:13.786Z,7.95
2023-10-23T02:44:42.422Z,7.91
2023-10-23T02:47:11.153Z,7.90
2023-10-23T02:49:41.096Z,7.91
2023-10-23T02:52:10.165Z,7.91
2023-10-23T02:54:38.763Z,7.85
2023-10-23T02:57:08.067Z,7.77
2023-10-23T02:59:36.741Z,7.67
2023-10-23T03:02:05.830Z,7.62
2023-10-23T03:04:35.983Z,7.62
2023-10-23T03:07:04.676Z,7.66
2023-10-23T03:09:33.085Z,7.73
2023-10-23T03:12:01.652Z,7.71
2023-10-23T03:14:30.161Z,7.69
2023-10-23T03:16:58.611Z,7.65
2023-10-23T03:19:27.531Z,7.66
2023-10-23T03:21:56.096Z,7.69
2023-10-23T03:24:24.591Z,7.60
2023-10-23T03:26:53.372Z,7.65
2023-10-23T03:29:22.377Z,7.63
2023-10-23T03:31:51.097Z,7.55
2023-10-23T03:34:19.899Z,7.46
2023-10-23T03:36:48.528Z,7.43
2023-10-23T03:39:17.056Z,7.52
2023-10-23T03:41:45.743Z,7.60
2023-10-23T03:44:14.452Z,7.55
2023-10-23T03:46:43.676Z,7.55
2023-10-23T03:49:13.567Z,7.57
2023-10-23T03:51:42.459Z,7.69
2023-10-23T03:54:11.657Z,7.67
2023-10-23T03:56:40.265Z,7.62
2023-10-23T03:59:08.691Z,7.53
2023-10-23T04:01:37.269Z,7.55
2023-10-23T04:04:06.277Z,7.40
2023-10-23T04:06:35.041Z,7.33
2023-10-23T04:09:03.613Z,7.29
2023-10-23T04:11:32.250Z,7.28
2023-10-23T04:14:00.696Z,7.26
2023-10-23T04:16:29.288Z,7.32
2023-10-23T04:18:57.899Z,7.32
2023-10-23T04:21:26.484Z,7.23
2023-10-23T04:23:55.164Z,7.26
2023-10-23T04:26:23.699Z,7.29
2023-10-23T04:28:52.195Z,7.25
2023-10-23T04:31:20.785Z,7.22
2023-10-23T04:33:49.315Z,7.14
2023-10-23T04:36:18.546Z,7.09
2023-10-23T04:38:47.212Z,7.11
2023-10-23T04:41:16.183Z,7.12
2023-10-23T04:43:44.753Z,7.09
2023-10-23T04:46:13.370Z,7.04
2023-10-23T04:48:42.038Z,7.00
2023-10-23T04:51:10.633Z,7.01
2023-10-23T04:53:39.618Z,6.94
2023-10-23T04:56:08.777Z,6.97
2023-10-23T04:58:37.511Z,6.94
2023-10-23T05:01:06.257Z,6.98
2023-10-23T05:03:34.851Z,7.02
2023-10-23T05:06:03.395Z,7.02
2023-10-23T05:08:32.719Z,6.98
2023-10-23T05:11:10.105Z,6.90
2023-10-23T05:13:38.700Z,6.88
2023-10-23T05:16:08.945Z,7.00
2023-10-23T05:18:37.785Z,7.01
2023-10-23T05:21:12.275Z,6.98
2023-10-23T05:23:42.513Z,6.94
2023-10-23T05:26:14.166Z,6.95
2023-10-23T05:28:43.873Z,6.98
2023-10-23T05:31:12.471Z,7.09
2023-10-23T05:33:41.196Z,7.05
2023-10-23T05:36:14.046Z,6.95
2023-10-23T05:38:43.148Z,7.02
2023-10-23T05:41:12.184Z,7.11
2023-10-23T05:43:40.689Z,7.15
2023-10-23T05:46:09.512Z,7.14
2023-10-23T05:48:40.735Z,7.01
2023-10-23T05:51:09.631Z,6.95
2023-10-23T05:53:38.365Z,6.92
2023-10-23T05:56:09.057Z,6.90
2023-10-23T05:58:37.917Z,6.81
2023-10-23T06:01:11.783Z,6.87
2023-10-23T06:03:40.746Z,6.95
2023-10-23T06:06:09.648Z,6.98
2023-10-23T06:08:38.139Z,6.97
2023-10-23T06:11:11.287Z,6.94
2023-10-23T06:13:41.628Z,6.95
2023-10-23T06:16:10.238Z,6.95
2023-10-23T06:18:40.672Z,7.04
2023-10-23T06:21:10.299Z,7.09
2023-10-23T06:23:42.295Z,7.12
2023-10-23T06:26:11.692Z,7.40
2023-10-23T06:28:40.176Z,7.59
2023-10-23T06:31:12.767Z,7.76
2023-10-23T06:33:41.546Z,7.93
2023-10-23T06:36:10.984Z,7.98
2023-10-23T06:38:40.458Z,7.97
2023-10-23T06:41:10.113Z,7.87
2023-10-23T06:43:39.072Z,7.85
2023-10-23T06:46:08.066Z,7.91
2023-10-23T06:48:36.670Z,7.91
2023-10-23T06:51:06.546Z,7.97
2023-10-23T06:53:36.600Z,7.99
2023-10-23T06:56:06.005Z,8.02
2023-10-23T06:58:34.640Z,8.09
2023-10-23T07:01:10.445Z,8.14
2023-10-23T07:03:39.517Z,8.26
2023-10-23T07:06:09.758Z,8.36
2023-10-23T07:08:40.881Z,8.56
2023-10-23T07:11:24.313Z,8.74
2023-10-23T07:13:52.841Z,8.83
2023-10-23T07:16:21.855Z,8.96
2023-10-23T07:18:50.617Z,9.07
2023-10-23T07:21:20.692Z,9.22
2023-10-23T07:23:49.279Z,9.36
2023-10-23T07:26:18.463Z,9.53
2023-10-23T07:28:47.300Z,9.62
2023-10-23T07:31:16.464Z,9.73
2023-10-23T07:33:45.455Z,9.82
2023-10-23T07:36:16.642Z,9.90
2023-10-23T07:38:47.131Z,10.01
2023-10-23T07:41:16.179Z,10.05
2023-10-23T07:43:45.589Z,10.15
2023-10-23T07:46:17.991Z,10.20
2023-10-23T07:48:48.069Z,10.27
2023-10-23T07:51:17.434Z,10.37
2023-10-23T07:53:46.140Z,10.39
2023-10-23T07:56:14.949Z,10.45
2023-10-23T07:58:43.640Z,10.56
2023-10-23T08:01:15.667Z,10.60
2023-10-23T08:03:44.526Z,10.70
2023-10-23T08:06:14.916Z,10.86
2023-10-23T08:08:47.853Z,11.07
2023-10-23T08:11:16.373Z,11.08
2023-10-23T08:13:45.286Z,11.30
2023-10-23T08:16:13.898Z,11.35
2023-10-23T08:18:43.193Z,11.45
2023-10-23T08:21:16.541Z,11.58
2023-10-23T08:23:48.367Z,11.72
2023-10-23T08:26:17.338Z,11.83
2023-10-23T08:31:34.967Z,12.00
2023-10-23T08:34:10.487Z,12.09
2023-10-23T08:36:40.068Z,12.26
2023-10-23T08:39:09.545Z,12.37
2023-10-23T08:41:42.506Z,12.47
2023-10-23T08:44:12.304Z,12.44
2023-10-23T08:46:43.229Z,12.54
2023-10-23T08:49:12.136Z,12.72
2023-10-23T08:51:47.600Z,12.83
2023-10-23T08:54:22.656Z,12.93
2023-10-23T08:57:02.517Z,13.03
2023-10-23T08:59:31.638Z,13.17
2023-10-23T09:02:01.867Z,13.27
2023-10-23T09:04:31.728Z,13.40
2023-10-23T09:07:02.035Z,13.55
2023-10-23T09:09:32.518Z,13.61
2023-10-23T09:12:01.223Z,13.61
2023-10-23T09:14:33.570Z,13.64
2023-10-23T09:17:02.351Z,13.61
2023-10-23T09:19:40.866Z,13.55
2023-10-23T09:22:10.191Z,13.74
2023-10-23T09:24:39.997Z,13.92
2023-10-23T09:27:08.770Z,13.79
2023-10-23T09:29:37.284Z,13.88
2023-10-23T09:32:07.509Z,13.77
2023-10-23T09:34:44.048Z,13.79
2023-10-23T09:37:13.010Z,13.69
2023-10-23T09:39:42.545Z,13.67
2023-10-23T09:42:11.817Z,13.61
2023-10-23T09:44:45.184Z,13.54
2023-10-23T09:47:17.072Z,13.58
2023-10-23T09:49:48.105Z,13.69
2023-10-23T09:52:17.419Z,13.75
2023-10-23T09:54:54.073Z,13.85
2023-10-23T09:57:52.213Z,13.92
2023-10-23T10:00:21.721Z,14.08
2023-10-23T10:03:01.618Z,14.15
2023-10-23T10:05:51.927Z,14.22
2023-10-23T10:08:27.178Z,14.16
2023-10-23T10:10:58.754Z,14.06
2023-10-23T10:13:30.813Z,14.06
2023-10-23T10:16:01.538Z,14.16
2023-10-23T10:18:31.762Z,14.23
2023-10-23T10:21:07.715Z,14.48
2023-10-23T10:23:39.622Z,14.59
2023-10-23T10:26:09.247Z,14.67
2023-10-23T10:28:41.654Z,14.60
2023-10-23T10:31:11.043Z,14.77
2023-10-23T10:34:29.020Z,14.81
2023-10-23T10:36:47.444Z,14.77
2023-10-23T10:39:19.144Z,14.60
2023-10-23T10:41:47.912Z,14.64
2023-10-23T10:44:20.582Z,14.77
2023-10-23T10:46:55.361Z,15.03
2023-10-23T10:49:24.787Z,14.93
2023-10-23T10:51:54.318Z,15.02
2023-10-23T10:54:23.424Z,15.05
2023-10-23T10:56:53.668Z,15.02
2023-10-23T10:59:29.149Z,15.03
2023-10-23T11:01:58.124Z,14.87
2023-10-23T11:04:27.231Z,14.72
2023-10-23T11:06:56.455Z,14.84
2023-10-23T11:09:25.019Z,15.06
2023-10-23T11:11:53.469Z,15.19
2023-10-23T11:14:21.972Z,15.23
2023-10-23T11:16:50.799Z,15.18
2023-10-23T11:19:19.686Z,15.36
2023-10-23T11:21:48.171Z,15.22
2023-10-23T11:24:17.035Z,15.43
2023-10-23T11:26:47.407Z,15.54
2023-10-23T11:29:18.808Z,15.58
2023-10-23T11:31:47.484Z,15.56
2023-10-23T11:34:18.163Z,15.63
2023-10-23T11:36:51.141Z,15.65
2023-10-23T11:39:22.577Z,15.82
2023-10-23T11:42:01.748Z,15.84
2023-10-23T11:44:36.376Z,15.74
2023-10-23T11:47:07.178Z,15.51
2023-10-23T11:49:36.168Z,15.47
2023-10-23T11:52:06.215Z,15.39
2023-10-23T11:54:34.851Z,15.43
2023-10-23T11:57:03.451Z,15.43
2023-10-23T11:59:32.108Z,15.54
2023-10-23T12:02:01.510Z,15.47
2023-10-23T12:04:37.260Z,15.60
2023-10-23T12:07:06.455Z,15.67
2023-10-23T12:09:35.414Z,15.57
2023-10-23T12:12:06.204Z,15.54
2023-10-23T12:14:34.778Z,15.54
2023-10-23T12:17:05.308Z,15.51
2023-10-23T12:19:33.903Z,15.56
2023-10-23T12:22:02.488Z,15.63
2023-10-23T12:24:31.074Z,15.40
2023-10-23T12:26:59.673Z,15.58
2023-10-23T12:29:28.530Z,15.39
2023-10-23T12:32:00.610Z,15.53
2023-10-23T12:34:32.897Z,15.58
2023-10-23T12:37:01.985Z,15.60
2023-10-23T12:39:33.570Z,15.64
2023-10-23T12:42:03.767Z,15.47
2023-10-23T12:44:32.671Z,15.42
2023-10-23T12:47:01.548Z,15.61
2023-10-23T12:49:30.895Z,15.46
2023-10-23T12:51:59.631Z,15.43
2023-10-23T12:54:28.762Z,15.51
2023-10-23T12:56:59.362Z,15.50
2023-10-23T12:59:28.007Z,15.46
2023-10-23T13:01:56.535Z,15.40
2023-10-23T13:04:25.229Z,15.51
2023-10-23T13:06:55.902Z,15.51
2023-10-23T13:09:26.796Z,15.61
2023-10-23T13:11:55.899Z,15.49
2023-10-23T13:14:24.390Z,15.53
2023-10-23T13:16:53.045Z,15.60
2023-10-23T13:19:21.793Z,15.70
2023-10-23T13:21:50.457Z,15.63
2023-10-23T13:24:19.734Z,15.68
2023-10-23T13:26:48.241Z,15.42
2023-10-23T13:29:16.877Z,15.47
2023-10-23T13:31:50.853Z,15.39
2023-10-23T13:34:20.418Z,15.50
2023-10-23T13:36:49.024Z,15.46
2023-10-23T13:39:18.022Z,15.51
2023-10-23T13:41:47.578Z,15.33
2023-10-23T13:44:16.190Z,15.40
2023-10-23T13:46:44.903Z,15.43
2023-10-23T13:49:14.079Z,15.40
2023-10-23T13:51:42.904Z,15.35
2023-10-23T13:54:11.344Z,15.37
2023-10-23T13:56:39.962Z,15.27
2023-10-23T13:59:08.583Z,15.23
2023-10-23T14:01:37.166Z,15.22
2023-10-23T14:04:06.456Z,15.15
2023-10-23T14:06:35.705Z,15.25
2023-10-23T14:09:40.730Z,15.32
2023-10-23T14:11:59.987Z,15.54
2023-10-23T14:14:31.334Z,15.63
2023-10-23T14:17:00.841Z,15.74
2023-10-23T14:19:42.423Z,15.64
2023-10-23T14:22:15.681Z,15.70
2023-10-23T14:24:44.390Z,15.56
2023-10-23T14:27:13.099Z,15.56
2023-10-23T14:29:41.981Z,15.57
2023-10-23T14:32:10.802Z,15.58
2023-10-23T14:34:39.513Z,15.42
2023-10-23T14:37:08.632Z,15.30
2023-10-23T14:39:37.166Z,15.16
2023-10-23T14:42:07.236Z,15.08
2023-10-23T14:44:39.017Z,14.99
2023-10-23T14:47:07.913Z,14.88
2023-10-23T14:49:36.569Z,14.81
2023-10-23T14:52:06.584Z,14.80
2023-10-23T14:54:35.291Z,14.74
2023-10-23T14:57:05.797Z,14.71
2023-10-23T14:59:34.953Z,14.64
2023-10-23T15:02:03.597Z,14.56
2023-10-23T15:04:33.346Z,14.54
2023-10-23T15:07:04.224Z,14.53
2023-10-23T15:09:33.254Z,14.45
2023-10-23T15:12:01.844Z,14.44
2023-10-23T15:14:30.365Z,14.43
2023-10-23T15:17:00.247Z,14.44
2023-10-23T15:19:29.061Z,14.41
2023-10-23T15:21:57.622Z,14.43
2023-10-23T15:24:26.167Z,14.37
2023-10-23T15:26:54.737Z,14.37
2023-10-23T15:29:23.461Z,14.30
2023-10-23T15:31:54.174Z,14.29
2023-10-23T15:34:23.557Z,14.30
2023-10-23T15:36:52.843Z,14.36
2023-10-23T15:39:24.429Z,14.27
2023-10-23T15:41:55.587Z,14.17
2023-10-23T15:44:28.454Z,14.16
2023-10-23T15:46:57.064Z,14.10
2023-10-23T15:49:25.844Z,14.05
2023-10-23T15:51:54.553Z,13.99
2023-10-23T15:54:23.152Z,13.98
2023-10-23T15:56:51.604Z,13.99
2023-10-23T15:59:20.036Z,13.96
2023-10-23T16:01:48.570Z,13.90
2023-10-23T16:04:17.263Z,13.89
2023-10-23T16:06:46.042Z,13.89
2023-10-23T16:09:24.541Z,13.89
2023-10-23T16:11:57.114Z,13.86
2023-10-23T16:14:49.894Z,13.83
2023-10-23T16:17:22.755Z,13.83
2023-10-23T16:19:51.845Z,13.79
2023-10-23T16:22:21.681Z,13.79
2023-10-23T16:24:50.481Z,13.75
2023-10-23T16:27:19.282Z,13.72
2023-10-23T16:29:50.219Z,13.69
2023-10-23T16:32:19.291Z,13.67
2023-10-23T16:34:50.711Z,13.67
2023-10-23T16:37:19.353Z,13.67
2023-10-23T16:39:47.821Z,13.71
2023-10-23T16:42:16.326Z,13.67
2023-10-23T16:44:55.433Z,13.67
2023-10-23T16:47:25.248Z,13.65
2023-10-23T16:49:56.699Z,13.67
2023-10-23T16:52:25.285Z,13.59
2023-10-23T16:54:54.101Z,13.62
2023-10-23T16:57:22.632Z,13.64
2023-10-23T16:59:51.207Z,13.62
2023-10-23T17:02:19.769Z,13.59
2023-10-23T17:04:50.525Z,13.59
2023-10-23T17:07:19.675Z,13.53
2023-10-23T17:09:48.459Z,13.48
2023-10-23T17:12:17.458Z,13.43
2023-10-23T17:14:46.991Z,13.41
2023-10-23T17:17:15.495Z,13.38
2023-10-23T17:19:49.304Z,13.31
2023-10-23T17:22:18.126Z,13.27
2023-10-23T17:24:46.786Z,13.12
2023-10-23T17:27:15.355Z,12.92
2023-10-23T17:29:44.492Z,12.71
2023-10-23T17:32:13.261Z,12.56
2023-10-23T17:34:42.111Z,12.37
2023-10-23T17:37:10.803Z,12.21
2023-10-23T17:39:39.422Z,12.09
2023-10-23T17:42:08.391Z,12.00
2023-10-23T17:44:36.943Z,11.89
2023-10-23T17:47:05.483Z,11.75
2023-10-23T17:49:34.161Z,11.68
2023-10-23T17:52:02.910Z,11.68
2023-10-23T17:54:34.105Z,11.63
2023-10-23T17:57:02.732Z,11.62
2023-10-23T17:59:31.287Z,11.54
2023-10-23T18:01:59.858Z,11.51
2023-10-23T18:04:29.064Z,11.55
2023-10-23T18:06:57.581Z,11.58
2023-10-23T18:09:26.210Z,11.55
2023-10-23T18:11:54.721Z,11.55
2023-10-23T18:14:24.400Z,11.62
2023-10-23T18:16:53.375Z,11.58
2023-10-23T18:19:22.154Z,11.58
2023-10-23T18:21:50.931Z,11.62
2023-10-23T18:24:19.595Z,11.61
2023-10-23T18:26:48.196Z,11.68
2023-10-23T18:29:17.044Z,11.71
2023-10-23T18:31:46.952Z,11.78
2023-10-23T18:34:15.603Z,11.80
2023-10-23T18:36:44.199Z,11.82
2023-10-23T18:39:12.781Z,11.87
2023-10-23T18:41:41.368Z,11.90
2023-10-23T18:44:10.248Z,11.99
2023-10-23T18:46:39.121Z,12.03
2023-10-23T18:49:07.865Z,12.03
2023-10-23T18:51:36.442Z,12.04
2023-10-23T18:54:05.171Z,12.06
2023-10-23T18:56:34.939Z,12.07
2023-10-23T18:59:03.809Z,12.10
2023-10-23T19:01:32.309Z,12.09
2023-10-23T19:04:01.074Z,12.09
2023-10-23T19:06:31.814Z,12.07
2023-10-23T19:09:05.898Z,12.09
2023-10-23T19:11:34.477Z,12.10
2023-10-23T19:14:03.217Z,12.12
2023-10-23T19:16:34.642Z,12.16
2023-10-23T19:19:03.438Z,12.14
2023-10-23T19:21:32.103Z,12.12
2023-10-23T19:24:00.631Z,12.16
2023-10-23T19:26:29.487Z,12.14
2023-10-23T19:28:58.101Z,12.14
2023-10-23T19:31:27.827Z,12.14
2023-10-23T19:33:57.152Z,12.16
2023-10-23T19:36:28.950Z,12.14
2023-10-23T19:38:58.221Z,12.16
2023-10-23T19:41:51.954Z,12.20
2023-10-23T19:44:21.423Z,12.21
2023-10-23T19:46:50.780Z,12.20
2023-10-23T19:49:22.195Z,12.21
2023-10-23T19:51:55.519Z,12.26
2023-10-23T19:54:37.396Z,12.26
2023-10-23T19:57:12.154Z,12.26
2023-10-23T19:59:44.344Z,12.23
2023-10-23T20:02:13.985Z,12.23
2023-10-23T20:04:42.672Z,12.21
2023-10-23T20:07:11.454Z,12.20
2023-10-23T20:09:40.143Z,12.20
2023-10-23T20:12:09.202Z,12.18
2023-10-23T20:14:37.772Z,12.23
2023-10-23T20:17:06.619Z,12.23
2023-10-23T20:19:36.785Z,12.24
2023-10-23T20:22:06.258Z,12.28
2023-10-23T20:24:35.305Z,12.27
2023-10-23T20:27:04.419Z,12.28
2023-10-23T20:29:32.970Z,12.28
2023-10-23T20:32:02.855Z,12.31
2023-10-23T20:34:32.009Z,12.31
2023-10-23T20:37:00.551Z,12.33
2023-10-23T20:39:29.153Z,12.30
2023-10-23T20:41:57.828Z,12.27
2023-10-23T20:44:26.391Z,12.26
2023-10-23T20:46:55.689Z,12.23
2023-10-23T20:49:24.294Z,12.21
2023-10-23T20:51:52.887Z,12.21
2023-10-23T20:54:22.160Z,12.18
2023-10-23T20:56:50.672Z,12.20
2023-10-23T20:59:19.254Z,12.20
2023-10-23T21:01:47.769Z,12.17
2023-10-23T21:04:16.935Z,12.14
2023-10-23T21:06:45.738Z,12.12
2023-10-23T21:09:14.233Z,12.09
2023-10-23T21:11:42.895Z,12.06
2023-10-23T21:14:11.486Z,12.06
2023-10-23T21:16:45.784Z,12.01
2023-10-23T21:19:16.230Z,11.99
2023-10-23T21:21:49.717Z,11.99
2023-10-23T21:24:18.687Z,11.99
2023-10-23T21:26:47.270Z,11.97
2023-10-23T21:29:25.651Z,11.97
2023-10-23T21:31:55.438Z,11.97
2023-10-23T21:34:24.995Z,11.94
2023-10-23T21:36:53.613Z,11.94
2023-10-23T21:39:22.323Z,11.93
2023-10-23T21:41:50.990Z,11.93
2023-10-23T21:44:19.535Z,11.94
2023-10-23T21:46:49.477Z,11.90
2023-10-23T21:49:18.218Z,11.86
2023-10-23T21:51:47.534Z,11.78
2023-10-23T21:54:16.857Z,11.76
2023-10-23T21:57:19.776Z,11.72
2023-10-23T21:59:36.188Z,11.71
2023-10-23T22:02:06.538Z,11.68
2023-10-23T22:04:35.818Z,11.66
2023-10-23T22:07:05.373Z,11.71
2023-10-23T22:09:37.559Z,11.68
2023-10-23T22:12:07.563Z,11.65
2023-10-23T22:14:36.890Z,11.73
2023-10-23T22:17:05.873Z,11.71
2023-10-23T22:19:35.092Z,11.69
2023-10-23T22:22:04.388Z,11.66
2023-10-23T22:24:32.971Z,11.68
2023-10-23T22:27:01.728Z,11.63
2023-10-23T22:29:30.260Z,11.65
2023-10-23T22:31:58.981Z,11.66
2023-10-23T22:34:27.712Z,11.71
2023-10-23T22:37:46.305Z,11.73
2023-10-23T22:39:44.727Z,11.78
2023-10-23T22:42:13.339Z,11.80
2023-10-23T22:44:42.479Z,11.78
2023-10-23T22:47:11.995Z,11.80
2023-10-23T22:49:42.334Z,11.82
2023-10-23T22:52:13.354Z,11.85
2023-10-23T22:54:43.332Z,11.85
2023-10-23T22:57:16.999Z,11.85
2023-10-23T22:59:46.560Z,11.82
2023-10-23T23:02:15.754Z,11.83
2023-10-23T23:04:47.278Z,11.85
2023-10-23T23:07:17.446Z,11.83
2023-10-23T23:09:46.546Z,11.83
2023-10-23T23:12:16.384Z,11.85
2023-10-23T23:14:45.698Z,11.86
2023-10-23T23:17:22.398Z,11.87
2023-10-23T23:19:54.196Z,11.89
2023-10-23T23:22:22.981Z,11.90
2023-10-23T23:24:51.591Z,11.89
2023-10-23T23:27:20.825Z,11.90
2023-10-23T23:29:49.283Z,11.87
2023-10-23T23:32:18.669Z,11.87
2023-10-23T23:34:47.814Z,11.89
2023-10-23T23:37:16.736Z,11.93
2023-10-23T23:39:45.348Z,11.91
2023-10-23T23:42:13.809Z,11.93
2023-10-23T23:44:43.153Z,11.94
2023-10-23T23:47:11.889Z,11.93
2023-10-23T23:49:41.671Z,11.96
2023-10-23T23:52:10.587Z,11.93
2023-10-23T23:54:39.407Z,11.94
2023-10-23T23:57:09.298Z,11.94
2023-10-23T23:59:37.786Z,11.91
